createdAt,value
2018-08-25T00:00:04.438Z,2.50
2018-08-25T00:02:32.512Z,2.10
2018-08-25T00:05:00.586Z,1.93
2018-08-25T00:07:28.687Z,1.90
2018-08-25T00:09:56.887Z,2.30
2018-08-25T00:12:24.985Z,2.00
2018-08-25T00:14:53.027Z,2.23
2018-08-25T00:17:27.938Z,2.40
2018-08-25T00:19:56.045Z,2.50
2018-08-25T00:24:58.676Z,1.90
2018-08-25T00:27:26.718Z,2.23
2018-08-25T00:29:54.768Z,2.00
2018-08-25T00:32:22.863Z,2.60
2018-08-25T00:34:50.959Z,2.63
2018-08-25T00:37:19.127Z,2.50
2018-08-25T00:39:47.205Z,2.17
2018-08-25T00:42:15.273Z,1.97
2018-08-25T00:44:43.430Z,2.00
2018-08-25T00:47:11.528Z,2.10
2018-08-25T00:49:39.610Z,1.87
2018-08-25T00:52:07.741Z,2.20
2018-08-25T00:54:35.837Z,2.10
2018-08-25T00:57:03.909Z,2.00
2018-08-25T00:59:32.037Z,2.57
2018-08-25T01:02:00.048Z,1.70
2018-08-25T01:04:28.101Z,2.00
2018-08-25T01:06:56.174Z,2.10
2018-08-25T01:09:24.244Z,2.03
2018-08-25T01:11:52.292Z,2.10
2018-08-25T01:14:20.392Z,2.33
2018-08-25T01:16:48.493Z,2.30
2018-08-25T01:19:16.547Z,2.47
2018-08-25T01:21:44.610Z,2.47
2018-08-25T01:24:12.672Z,2.00
2018-08-25T01:26:40.771Z,2.07
2018-08-25T01:29:08.861Z,2.10
2018-08-25T01:31:36.976Z,4.07
2018-08-25T01:34:05.048Z,2.00
2018-08-25T01:36:33.118Z,1.80
2018-08-25T01:39:01.189Z,1.77
2018-08-25T01:41:29.296Z,2.27
2018-08-25T01:43:57.374Z,1.90
2018-08-25T01:46:25.469Z,1.97
2018-08-25T01:48:53.523Z,2.10
2018-08-25T01:51:21.592Z,2.00
2018-08-25T01:53:49.688Z,2.20
2018-08-25T01:56:17.785Z,1.97
2018-08-25T01:58:45.862Z,2.13
2018-08-25T02:01:13.957Z,2.13
2018-08-25T02:03:42.051Z,2.20
2018-08-25T02:06:10.154Z,2.20
2018-08-25T02:08:38.203Z,2.30
2018-08-25T02:11:06.248Z,2.20
2018-08-25T02:13:34.314Z,1.70
2018-08-25T02:16:02.429Z,1.90
2018-08-25T02:18:30.547Z,1.90
2018-08-25T02:20:58.618Z,2.20
2018-08-25T02:23:26.696Z,1.73
2018-08-25T02:25:54.763Z,2.43
2018-08-25T02:28:22.931Z,1.77
2018-08-25T02:30:51.071Z,2.30
2018-08-25T02:33:19.158Z,2.10
2018-08-25T02:35:47.210Z,2.00
2018-08-25T02:38:15.338Z,2.40
2018-08-25T02:40:43.470Z,1.90
2018-08-25T02:43:11.568Z,2.27
2018-08-25T02:45:39.623Z,2.63
2018-08-25T02:48:07.681Z,2.40
2018-08-25T02:50:35.762Z,2.03
2018-08-25T02:53:03.865Z,2.10
2018-08-25T02:55:31.918Z,2.20
2018-08-25T02:57:59.990Z,2.40
2018-08-25T03:00:28.074Z,2.00
2018-08-25T03:02:56.184Z,2.30
2018-08-25T03:05:24.247Z,2.37
2018-08-25T03:07:52.363Z,2.03
2018-08-25T03:10:20.417Z,2.37
2018-08-25T03:12:48.577Z,2.13
2018-08-25T03:15:16.688Z,2.40
2018-08-25T03:17:44.962Z,2.40
2018-08-25T03:20:13.140Z,2.33
2018-08-25T03:22:41.289Z,2.70
2018-08-25T03:25:09.660Z,2.30
2018-08-25T03:27:37.750Z,2.73
2018-08-25T03:30:05.826Z,2.53
2018-08-25T03:32:33.956Z,2.77
2018-08-25T03:35:02.019Z,2.53
2018-08-25T03:37:30.107Z,2.63
2018-08-25T03:39:58.152Z,2.93
2018-08-25T03:42:26.292Z,2.63
2018-08-25T03:44:54.350Z,3.20
2018-08-25T03:47:22.442Z,2.93
2018-08-25T03:49:50.514Z,2.63
2018-08-25T03:52:18.589Z,2.90
2018-08-25T03:54:46.653Z,3.10
2018-08-25T03:57:14.773Z,2.83
2018-08-25T03:59:42.844Z,3.13
2018-08-25T04:02:10.898Z,2.60
2018-08-25T04:04:38.987Z,3.03
2018-08-25T04:07:07.043Z,2.90
2018-08-25T04:09:35.129Z,3.30
2018-08-25T04:12:03.286Z,3.20
2018-08-25T04:14:31.394Z,2.90
2018-08-25T04:16:59.446Z,3.33
2018-08-25T04:19:27.574Z,2.90
2018-08-25T04:21:55.645Z,2.63
2018-08-25T04:24:23.703Z,3.27
2018-08-25T04:26:51.799Z,2.87
2018-08-25T04:29:19.879Z,3.17
2018-08-25T04:31:47.966Z,3.13
2018-08-25T04:34:16.043Z,3.10
2018-08-25T04:36:44.104Z,3.17
2018-08-25T04:39:12.517Z,3.07
2018-08-25T04:41:40.685Z,3.07
2018-08-25T04:44:09.273Z,3.30
2018-08-25T04:46:37.430Z,2.90
2018-08-25T04:49:05.799Z,3.00
2018-08-25T04:51:33.882Z,3.23
2018-08-25T04:54:01.968Z,3.30
2018-08-25T04:56:30.056Z,3.20
2018-08-25T04:58:58.118Z,3.33
2018-08-25T05:01:26.211Z,3.60
2018-08-25T05:03:54.339Z,3.43
2018-08-25T05:06:22.432Z,3.90
2018-08-25T05:08:50.507Z,3.80
2018-08-25T05:11:18.558Z,3.90
2018-08-25T05:13:46.663Z,4.10
2018-08-25T05:16:14.714Z,4.20
2018-08-25T05:18:42.800Z,4.10
2018-08-25T05:21:10.904Z,4.57
2018-08-25T05:23:39.010Z,4.60
2018-08-25T05:26:07.187Z,4.87
2018-08-25T05:28:35.365Z,4.73
2018-08-25T05:31:03.630Z,5.13
2018-08-25T05:33:31.763Z,5.13
2018-08-25T05:35:59.835Z,4.60
2018-08-25T05:38:27.926Z,4.40
2018-08-25T05:40:55.986Z,4.70
2018-08-25T05:43:24.082Z,4.93
2018-08-25T05:45:52.177Z,5.37
2018-08-25T05:48:20.380Z,5.40
2018-08-25T05:50:48.424Z,5.63
2018-08-25T05:53:16.494Z,5.60
2018-08-25T05:55:44.562Z,5.23
2018-08-25T05:58:12.700Z,5.00
2018-08-25T06:00:42.267Z,5.10
2018-08-25T06:03:10.366Z,4.93
2018-08-25T06:05:38.438Z,5.03
2018-08-25T06:08:06.560Z,5.50
2018-08-25T06:10:34.601Z,4.97
2018-08-25T06:13:02.686Z,5.30
2018-08-25T06:15:30.773Z,7.30
2018-08-25T06:17:58.830Z,8.23
2018-08-25T06:20:26.945Z,9.13
2018-08-25T06:22:54.974Z,9.80
2018-08-25T06:25:23.104Z,9.63
2018-08-25T06:27:51.219Z,11.23
2018-08-25T06:30:19.323Z,10.67
2018-08-25T06:32:47.398Z,10.70
2018-08-25T06:35:15.531Z,9.43
2018-08-25T06:37:43.607Z,9.93
2018-08-25T06:40:11.728Z,10.13
2018-08-25T06:42:39.941Z,10.60
2018-08-25T06:45:07.941Z,11.33
2018-08-25T06:47:36.111Z,11.03
2018-08-25T06:50:04.232Z,10.67
2018-08-25T06:52:32.339Z,11.13
2018-08-25T06:55:00.442Z,11.90
2018-08-25T06:57:28.511Z,10.07
2018-08-25T06:59:56.623Z,9.00
2018-08-25T07:02:24.722Z,10.80
2018-08-25T07:04:52.795Z,11.40
2018-08-25T07:07:21.780Z,11.30
2018-08-25T07:09:49.955Z,11.33
2018-08-25T07:12:18.043Z,11.50
2018-08-25T07:14:46.160Z,10.80
2018-08-25T07:17:14.218Z,9.33
2018-08-25T07:19:42.332Z,9.67
2018-08-25T07:22:10.499Z,12.33
2018-08-25T07:24:38.627Z,11.80
2018-08-25T07:27:06.710Z,10.27
2018-08-25T07:29:34.818Z,8.57
2018-08-25T07:32:03.009Z,9.50
2018-08-25T07:34:31.109Z,11.30
2018-08-25T07:36:59.300Z,11.53
2018-08-25T07:39:27.463Z,11.57
2018-08-25T07:41:55.566Z,12.20
2018-08-25T07:44:23.678Z,13.37
2018-08-25T07:46:52.979Z,13.73
2018-08-25T07:49:21.410Z,15.00
2018-08-25T07:51:49.559Z,15.40
2018-08-25T07:54:17.634Z,16.50
2018-08-25T07:56:45.754Z,18.13
2018-08-25T07:59:13.908Z,16.17
2018-08-25T08:01:41.963Z,17.37
2018-08-25T08:04:10.096Z,16.60
2018-08-25T08:06:38.229Z,19.43
2018-08-25T08:09:07.996Z,18.90
2018-08-25T08:11:36.278Z,19.87
2018-08-25T08:14:04.419Z,18.17
2018-08-25T08:16:32.507Z,19.47
2018-08-25T08:19:00.631Z,18.27
2018-08-25T08:21:28.741Z,19.97
2018-08-25T08:23:56.819Z,17.53
2018-08-25T08:26:24.953Z,14.23
2018-08-25T08:28:53.056Z,10.17
2018-08-25T08:31:21.135Z,10.13
2018-08-25T08:33:49.593Z,18.10
2018-08-25T08:36:17.730Z,16.27
2018-08-25T08:38:45.828Z,15.73
2018-08-25T08:41:13.907Z,14.87
2018-08-25T08:43:42.007Z,11.30
2018-08-25T08:46:10.143Z,12.50
2018-08-25T08:48:38.560Z,12.80
2018-08-25T08:51:07.201Z,12.60
2018-08-25T08:53:35.352Z,11.20
2018-08-25T08:56:03.495Z,11.10
2018-08-25T08:58:31.550Z,11.60
2018-08-25T09:00:59.731Z,13.00
2018-08-25T09:03:27.866Z,14.63
2018-08-25T09:05:55.950Z,14.83
2018-08-25T09:08:24.092Z,11.67
2018-08-25T09:10:52.164Z,10.47
2018-08-25T09:13:20.224Z,8.20
2018-08-25T09:15:48.339Z,8.63
2018-08-25T09:18:16.478Z,10.03
2018-08-25T09:20:44.595Z,8.87
2018-08-25T09:23:12.662Z,7.83
2018-08-25T09:25:40.820Z,7.70
2018-08-25T09:28:08.990Z,7.53
2018-08-25T09:30:37.061Z,8.07
2018-08-25T09:33:05.353Z,8.13
2018-08-25T09:35:33.573Z,6.93
2018-08-25T09:38:01.761Z,7.70
2018-08-25T09:40:36.130Z,8.03
2018-08-25T09:43:04.484Z,7.67
2018-08-25T09:45:32.545Z,7.00
2018-08-25T09:48:00.707Z,7.17
2018-08-25T09:50:28.787Z,7.90
2018-08-25T09:52:56.874Z,6.53
2018-08-25T09:55:24.936Z,7.00
2018-08-25T09:57:53.082Z,6.80
2018-08-25T10:00:21.235Z,6.17
2018-08-25T10:02:49.334Z,5.50
2018-08-25T10:05:17.519Z,6.03
2018-08-25T10:07:45.619Z,7.07
2018-08-25T10:10:13.705Z,6.10
2018-08-25T10:12:41.800Z,6.53
2018-08-25T10:15:09.872Z,6.60
2018-08-25T10:17:37.983Z,6.63
2018-08-25T10:20:06.170Z,5.80
2018-08-25T10:22:34.261Z,5.53
2018-08-25T10:25:02.330Z,5.90
2018-08-25T10:27:30.410Z,6.67
2018-08-25T10:29:58.477Z,5.63
2018-08-25T10:32:26.563Z,5.83
2018-08-25T10:34:54.622Z,6.27
2018-08-25T10:37:22.683Z,5.83
2018-08-25T10:39:50.786Z,5.27
2018-08-25T10:42:18.860Z,6.42
2018-08-25T10:44:47.065Z,5.93
2018-08-25T10:47:15.150Z,6.30
2018-08-25T10:49:43.225Z,6.03
2018-08-25T10:52:11.445Z,6.70
2018-08-25T10:54:39.550Z,5.80
2018-08-25T10:57:07.655Z,5.93
2018-08-25T10:59:35.756Z,6.20
2018-08-25T11:02:03.923Z,6.00
2018-08-25T11:04:35.097Z,6.20
2018-08-25T11:07:03.211Z,6.00
2018-08-25T11:09:31.346Z,5.13
2018-08-25T11:11:59.460Z,5.10
2018-08-25T11:14:27.556Z,5.20
2018-08-25T11:16:55.731Z,4.87
2018-08-25T11:19:23.802Z,4.37
2018-08-25T11:21:51.898Z,4.03
2018-08-25T11:24:19.993Z,3.60
2018-08-25T11:26:48.105Z,3.47
2018-08-25T11:29:16.249Z,2.97
2018-08-25T11:31:44.321Z,3.17
2018-08-25T11:34:12.376Z,3.07
2018-08-25T11:36:40.428Z,3.20
2018-08-25T11:39:09.722Z,2.87
2018-08-25T11:41:37.790Z,2.50
2018-08-25T11:44:05.929Z,2.97
2018-08-25T11:46:33.990Z,3.30
2018-08-25T11:49:02.103Z,2.83
2018-08-25T11:51:30.175Z,3.27
2018-08-25T11:53:58.399Z,2.60
2018-08-25T11:56:26.635Z,3.03
2018-08-25T11:58:54.728Z,3.10
2018-08-25T12:01:23.234Z,3.67
2018-08-25T12:03:51.586Z,3.10
2018-08-25T12:06:19.778Z,3.17
2018-08-25T12:08:47.882Z,2.97
2018-08-25T12:11:15.980Z,2.90
2018-08-25T12:13:44.271Z,3.60
2018-08-25T12:16:12.366Z,2.40
2018-08-25T12:18:40.459Z,2.30
2018-08-25T12:21:08.523Z,2.43
2018-08-25T12:23:36.681Z,2.27
2018-08-25T12:26:04.720Z,1.77
2018-08-25T12:28:32.790Z,3.00
2018-08-25T12:31:00.847Z,4.70
2018-08-25T12:33:28.949Z,5.90
2018-08-25T12:35:57.005Z,5.93
2018-08-25T12:38:25.183Z,5.40
2018-08-25T12:40:53.251Z,5.10
2018-08-25T12:43:22.455Z,4.50
2018-08-25T12:45:50.578Z,4.50
2018-08-25T12:48:18.650Z,3.70
2018-08-25T12:50:46.760Z,3.83
2018-08-25T12:53:14.838Z,3.17
2018-08-25T12:55:42.958Z,3.30
2018-08-25T12:58:11.071Z,3.53
2018-08-25T13:00:39.157Z,3.30
2018-08-25T13:03:07.237Z,3.23
2018-08-25T13:05:35.313Z,2.67
2018-08-25T13:08:03.399Z,2.47
2018-08-25T13:10:31.489Z,2.50
2018-08-25T13:12:59.598Z,2.07
2018-08-25T13:15:27.754Z,2.10
2018-08-25T13:17:55.822Z,1.90
2018-08-25T13:20:23.955Z,2.27
2018-08-25T13:22:52.048Z,2.30
2018-08-25T13:25:20.165Z,2.17
2018-08-25T13:27:48.234Z,2.30
2018-08-25T13:30:16.379Z,2.10
2018-08-25T13:32:44.820Z,2.00
2018-08-25T13:35:12.877Z,2.47
2018-08-25T13:37:40.986Z,2.43
2018-08-25T13:40:09.081Z,2.57
2018-08-25T13:42:37.277Z,2.43
2018-08-25T13:45:05.351Z,2.27
2018-08-25T13:47:33.437Z,2.60
2018-08-25T13:50:02.863Z,3.00
2018-08-25T13:52:30.979Z,2.77
2018-08-25T13:54:59.046Z,2.50
2018-08-25T13:57:27.170Z,2.50
2018-08-25T13:59:55.349Z,2.73
2018-08-25T14:02:23.587Z,2.87
2018-08-25T14:04:51.676Z,2.77
2018-08-25T14:07:19.732Z,2.53
2018-08-25T14:09:48.299Z,2.40
2018-08-25T14:12:16.379Z,3.00
2018-08-25T14:14:44.479Z,2.37
2018-08-25T14:17:12.543Z,3.20
2018-08-25T14:19:40.694Z,2.73
2018-08-25T14:22:08.770Z,2.67
2018-08-25T14:24:36.879Z,2.10
2018-08-25T14:27:05.104Z,2.03
2018-08-25T14:29:33.186Z,2.40
2018-08-25T14:32:01.386Z,1.87
2018-08-25T14:34:29.472Z,2.40
2018-08-25T14:36:57.546Z,2.53
2018-08-25T14:39:25.642Z,2.73
2018-08-25T14:41:53.730Z,2.30
2018-08-25T14:44:21.873Z,2.20
2018-08-25T14:46:49.959Z,2.33
2018-08-25T14:49:18.112Z,2.40
2018-08-25T14:51:46.652Z,2.30
2018-08-25T14:54:14.726Z,2.87
2018-08-25T14:56:42.864Z,3.10
2018-08-25T14:59:10.978Z,2.67
2018-08-25T15:01:39.032Z,2.30
2018-08-25T15:04:07.111Z,2.50
2018-08-25T15:06:35.230Z,2.33
2018-08-25T15:09:03.616Z,2.30
2018-08-25T15:11:31.687Z,2.30
2018-08-25T15:13:59.915Z,2.20
2018-08-25T15:16:28.241Z,2.07
2018-08-25T15:18:56.425Z,1.90
2018-08-25T15:21:24.460Z,2.13
2018-08-25T15:23:52.592Z,2.43
2018-08-25T15:26:20.713Z,1.77
2018-08-25T15:28:48.811Z,1.83
2018-08-25T15:31:16.866Z,1.63
2018-08-25T15:33:44.935Z,1.70
2018-08-25T15:36:12.987Z,1.73
2018-08-25T15:38:41.067Z,1.83
2018-08-25T15:41:09.162Z,2.03
2018-08-25T15:43:37.199Z,1.97
2018-08-25T15:46:05.416Z,1.80
2018-08-25T15:48:33.512Z,1.70
2018-08-25T15:51:01.612Z,1.80
2018-08-25T15:53:29.681Z,1.87
2018-08-25T15:55:57.767Z,1.23
2018-08-25T15:58:25.924Z,1.53
2018-08-25T16:00:53.981Z,1.17
2018-08-25T16:03:22.077Z,1.13
2018-08-25T16:05:50.184Z,1.30
2018-08-25T16:08:18.279Z,1.30
2018-08-25T16:10:46.336Z,0.90
2018-08-25T16:13:14.413Z,1.10
2018-08-25T16:15:42.517Z,1.10
2018-08-25T16:18:10.619Z,1.63
2018-08-25T16:20:38.900Z,1.60
2018-08-25T16:23:06.976Z,1.47
2018-08-25T16:25:36.351Z,1.30
2018-08-25T16:28:04.455Z,1.30
2018-08-25T16:30:32.621Z,1.40
2018-08-25T16:33:00.791Z,1.33
2018-08-25T16:35:28.899Z,1.40
2018-08-25T16:37:57.195Z,1.63
2018-08-25T16:40:25.387Z,1.27
2018-08-25T16:42:53.481Z,1.50
2018-08-25T16:45:21.556Z,1.30
2018-08-25T16:47:51.014Z,1.40
2018-08-25T16:50:19.657Z,1.33
2018-08-25T16:52:47.763Z,1.70
2018-08-25T16:55:15.927Z,1.40
2018-08-25T16:57:43.984Z,1.90
2018-08-25T17:00:12.366Z,1.77
2018-08-25T17:02:40.445Z,1.50
2018-08-25T17:05:08.986Z,1.57
2018-08-25T17:07:37.070Z,1.50
2018-08-25T17:10:05.152Z,1.40
2018-08-25T17:12:33.256Z,1.60
2018-08-25T17:15:01.337Z,1.70
2018-08-25T17:17:29.520Z,1.57
2018-08-25T17:19:57.628Z,1.70
2018-08-25T17:22:25.730Z,1.90
2018-08-25T17:24:53.830Z,1.50
2018-08-25T17:27:21.922Z,1.77
2018-08-25T17:29:49.973Z,1.77
2018-08-25T17:32:18.100Z,1.63
2018-08-25T17:34:46.181Z,1.50
2018-08-25T17:37:14.271Z,2.13
2018-08-25T17:39:42.309Z,2.03
2018-08-25T17:42:10.383Z,1.90
2018-08-25T17:44:38.496Z,1.77
2018-08-25T17:47:06.598Z,1.60
2018-08-25T17:49:34.670Z,1.80
2018-08-25T17:52:02.825Z,1.70
2018-08-25T17:54:30.920Z,1.30
2018-08-25T17:56:59.109Z,1.60
2018-08-25T17:59:27.132Z,1.60
2018-08-25T18:01:55.211Z,1.67
2018-08-25T18:04:23.257Z,1.50
2018-08-25T18:06:51.327Z,1.90
2018-08-25T18:09:19.406Z,1.73
2018-08-25T18:11:47.543Z,1.67
2018-08-25T18:14:15.610Z,1.60
2018-08-25T18:16:43.755Z,1.80
2018-08-25T18:19:11.995Z,1.80
2018-08-25T18:21:40.377Z,1.83
2018-08-25T18:24:08.654Z,1.70
2018-08-25T18:26:36.775Z,1.70
2018-08-25T18:29:05.064Z,1.60
2018-08-25T18:31:33.168Z,1.73
2018-08-25T18:34:01.202Z,1.70
2018-08-25T18:36:29.276Z,1.53
2018-08-25T18:38:57.376Z,1.60
2018-08-25T18:41:25.453Z,1.70
2018-08-25T18:43:53.562Z,1.67
2018-08-25T18:46:21.817Z,1.70
2018-08-25T18:48:49.936Z,1.47
2018-08-25T18:51:18.062Z,1.67
2018-08-25T18:53:46.134Z,1.60
2018-08-25T18:56:14.271Z,1.80
2018-08-25T18:58:42.384Z,2.00
2018-08-25T19:01:10.429Z,2.10
2018-08-25T19:03:38.693Z,1.70
2018-08-25T19:06:06.783Z,1.70
2018-08-25T19:08:34.911Z,1.80
2018-08-25T19:11:02.936Z,2.10
2018-08-25T19:13:31.035Z,2.13
2018-08-25T19:15:59.167Z,1.97
2018-08-25T19:18:27.266Z,1.97
2018-08-25T19:20:55.459Z,1.83
2018-08-25T19:23:23.526Z,2.00
2018-08-25T19:25:51.664Z,2.10
2018-08-25T19:28:19.723Z,2.10
2018-08-25T19:30:47.836Z,1.77
2018-08-25T19:33:15.947Z,1.87
2018-08-25T19:35:44.085Z,1.80
2018-08-25T19:38:12.270Z,2.10
2018-08-25T19:40:40.367Z,2.13
2018-08-25T19:43:08.596Z,2.00
2018-08-25T19:45:36.698Z,2.20
2018-08-25T19:48:04.849Z,1.60
2018-08-25T19:50:33.073Z,1.73
2018-08-25T19:53:01.264Z,2.03
2018-08-25T19:55:29.356Z,1.87
2018-08-25T19:57:57.499Z,1.90
2018-08-25T20:00:25.710Z,1.50
2018-08-25T20:02:53.732Z,1.33
2018-08-25T20:05:21.978Z,1.70
2018-08-25T20:07:50.065Z,1.53
2018-08-25T20:10:18.113Z,1.90
2018-08-25T20:12:46.232Z,2.53
2018-08-25T20:15:14.339Z,1.27
2018-08-25T20:17:42.552Z,1.60
2018-08-25T20:20:10.643Z,1.43
2018-08-25T20:22:38.796Z,1.70
2018-08-25T20:25:07.665Z,1.73
2018-08-25T20:27:35.750Z,1.40
2018-08-25T20:30:04.068Z,1.43
2018-08-25T20:32:32.262Z,1.30
2018-08-25T20:35:00.348Z,1.50
2018-08-25T20:37:28.446Z,1.23
2018-08-25T20:39:56.529Z,1.47
2018-08-25T20:42:24.606Z,1.63
2018-08-25T20:44:52.719Z,1.47
2018-08-25T20:47:20.784Z,1.70
2018-08-25T20:49:48.984Z,1.80
2018-08-25T20:52:17.061Z,1.43
2018-08-25T20:54:45.153Z,1.80
2018-08-25T20:57:13.304Z,2.00
2018-08-25T20:59:41.489Z,1.67
2018-08-25T21:02:09.610Z,1.90
2018-08-25T21:04:37.820Z,1.83
2018-08-25T21:07:05.892Z,2.27
2018-08-25T21:09:33.954Z,1.90
2018-08-25T21:12:02.091Z,1.70
2018-08-25T21:14:30.170Z,1.73
2018-08-25T21:16:58.320Z,1.50
2018-08-25T21:19:26.454Z,1.67
2018-08-25T21:21:54.546Z,1.47
2018-08-25T21:24:22.642Z,1.50
2018-08-25T21:26:50.782Z,1.37
2018-08-25T21:29:18.891Z,1.20
2018-08-25T21:31:46.987Z,1.80
2018-08-25T21:34:15.149Z,1.60
2018-08-25T21:36:43.214Z,1.50
2018-08-25T21:39:12.487Z,1.33
2018-08-25T21:41:40.803Z,1.40
2018-08-25T21:44:09.059Z,1.20
2018-08-25T21:46:37.150Z,1.60
2018-08-25T21:49:05.223Z,1.20
2018-08-25T21:51:33.823Z,1.13
2018-08-25T21:54:01.907Z,1.37
2018-08-25T21:56:30.021Z,1.30
2018-08-25T21:58:58.153Z,1.23
2018-08-25T22:01:28.857Z,1.50
2018-08-25T22:03:56.923Z,1.20
2018-08-25T22:06:25.041Z,1.20
2018-08-25T22:08:53.275Z,1.50
2018-08-25T22:11:21.434Z,1.30
2018-08-25T22:13:49.458Z,1.30
2018-08-25T22:16:17.634Z,1.37
2018-08-25T22:18:45.954Z,1.30
2018-08-25T22:21:14.086Z,1.30
2018-08-25T22:23:42.274Z,1.50
2018-08-25T22:26:10.334Z,1.00
2018-08-25T22:28:38.551Z,1.30
2018-08-25T22:31:06.781Z,1.20
2018-08-25T22:33:34.809Z,1.23
2018-08-25T22:36:02.954Z,1.00
2018-08-25T22:38:31.068Z,1.37
2018-08-25T22:40:59.135Z,1.27
2018-08-25T22:43:27.206Z,1.40
2018-08-25T22:45:55.326Z,1.33
2018-08-25T22:48:23.449Z,1.47
2018-08-25T22:50:51.688Z,1.40
2018-08-25T22:53:19.756Z,1.30
2018-08-25T22:55:48.265Z,1.30
2018-08-25T22:58:16.379Z,1.30
2018-08-25T23:00:44.502Z,1.20
2018-08-25T23:03:12.885Z,1.40
2018-08-25T23:05:41.185Z,1.47
2018-08-25T23:08:09.282Z,1.20
2018-08-25T23:10:37.400Z,1.17
2018-08-25T23:13:05.793Z,1.37
2018-08-25T23:15:33.846Z,1.40
2018-08-25T23:18:01.972Z,1.30
2018-08-25T23:20:30.079Z,1.10
2018-08-25T23:22:58.158Z,1.10
2018-08-25T23:25:26.317Z,1.50
2018-08-25T23:27:54.428Z,1.50
2018-08-25T23:30:22.519Z,1.10
2018-08-25T23:32:50.630Z,1.00
2018-08-25T23:35:18.735Z,1.20
2018-08-25T23:37:46.899Z,1.30
2018-08-25T23:40:15.005Z,1.20
2018-08-25T23:42:43.088Z,1.10
2018-08-25T23:45:11.195Z,1.20
2018-08-25T23:47:39.333Z,1.30
2018-08-25T23:50:07.441Z,1.20
2018-08-25T23:52:36.597Z,1.20
2018-08-25T23:55:06.528Z,1.20
2018-08-25T23:57:34.587Z,1.20
